Time;durP1;ratioP1;P1;durP2;ratioP2;P2;SDS_P1;SDS_P2;PMS_P1;PMS_P2;Temp;Humidity;BMP_temperature;BMP_pressure;BME280_temperature;BME280_humidity;BME280_pressure;Samples;Min_cycle;Max_cycle;Signal;HPM_P1;HPM_P2
2021/03/25 00:01:45;;;;;;;8.57;3.20;;;;;;;4.44;63.48;95845.59;5071117;28;20466;-73
2021/03/25 00:04:11;;;;;;;2.97;2.50;;;;;;;4.43;63.93;95848.47;5073539;28;20081;-73
2021/03/25 00:06:44;;;;;;;8.82;2.72;;;;;;;4.38;63.46;95848.41;5071402;28;20052;-73
2021/03/25 00:09:20;;;;;;;3.20;2.55;;;;;;;4.39;63.84;95850.81;5070091;28;20931;-74
2021/03/25 00:11:45;;;;;;;4.57;2.40;;;;;;;4.39;63.66;95848.16;5069828;28;20035;-73
2021/03/25 00:14:11;;;;;;;6.05;2.72;;;;;;;4.28;63.70;95821.97;5071229;28;20045;-73
2021/03/25 00:16:36;;;;;;;3.33;2.50;;;;;;;4.27;63.90;95820.38;5071066;28;20029;-75
2021/03/25 00:19:05;;;;;;;4.10;2.53;;;;;;;4.41;63.98;95842.69;5073107;28;20032;-73
2021/03/25 00:21:30;;;;;;;2.78;2.20;;;;;;;4.27;63.64;95820.38;5069966;28;20111;-74
2021/03/25 00:23:56;;;;;;;3.47;2.15;;;;;;;4.35;63.97;95822.56;5070769;28;20055;-73
2021/03/25 00:26:21;;;;;;;2.17;1.83;;;;;;;4.28;63.69;95821.97;5071096;28;20086;-73
2021/03/25 00:28:46;;;;;;;6.63;2.58;;;;;;;4.24;63.82;95815.59;5069501;28;20477;-73
2021/03/25 00:31:12;;;;;;;6.28;2.00;;;;;;;4.31;63.55;95826.75;5071736;28;20056;-74
2021/03/25 00:33:37;;;;;;;4.47;2.15;;;;;;;4.27;63.55;95820.38;5070796;28;20047;-73
2021/03/25 00:36:03;;;;;;;4.07;2.30;;;;;;;4.26;63.89;95813.53;5070853;28;20040;-74
2021/03/25 00:38:28;;;;;;;3.63;2.15;;;;;;;4.22;63.38;95807.16;5069349;28;20043;-73
2021/03/25 00:40:54;;;;;;;3.38;1.80;;;;;;;4.27;63.95;95815.13;5070972;28;20028;-74
2021/03/25 00:43:22;;;;;;;2.40;2.10;;;;;;;4.29;64.08;95818.28;5072899;28;20508;-75
2021/03/25 00:45:49;;;;;;;2.30;2.00;;;;;;;4.27;64.17;95817.75;5070790;28;20048;-74
2021/03/25 00:48:17;;;;;;;2.60;1.88;;;;;;;4.21;63.63;95816.13;5070563;28;20059;-74
2021/03/25 00:50:46;;;;;;;10.32;2.30;;;;;;;4.23;63.89;95822.72;5067327;28;20113;-74
2021/03/25 00:53:17;;;;;;;4.82;2.15;;;;;;;4.20;64.17;95812.69;5070093;28;20050;-73
2021/03/25 00:55:43;;;;;;;2.78;2.00;;;;;;;4.08;64.34;95801.47;5070513;28;20039;-74
2021/03/25 00:58:08;;;;;;;3.08;1.73;;;;;;;4.06;64.22;95791.22;5072363;28;20021;-74
2021/03/25 01:00:37;;;;;;;4.57;1.95;;;;;;;4.09;64.27;95803.84;5070583;28;20032;-73
2021/03/25 01:03:03;;;;;;;2.58;1.98;;;;;;;4.11;64.27;95793.91;5070270;28;20052;-73
2021/03/25 01:05:30;;;;;;;1.83;1.70;;;;;;;4.13;64.40;95809.44;5070191;28;20039;-73
2021/03/25 01:07:56;;;;;;;1.88;1.48;;;;;;;4.12;64.29;95806.00;5070060;28;20083;-73
2021/03/25 01:10:40;;;;;;;2.88;1.60;;;;;;;3.74;64.23;95749.00;5071994;28;20031;-73
2021/03/25 01:13:14;;;;;;;3.05;1.98;;;;;;;4.10;64.12;95805.47;5069243;28;20033;-73
2021/03/25 01:15:40;;;;;;;2.15;1.55;;;;;;;4.05;64.76;95802.00;5070011;28;20079;-73
2021/03/25 01:18:07;;;;;;;1.85;1.50;;;;;;;4.05;64.71;95802.78;5070089;28;20078;-73
2021/03/25 01:20:36;;;;;;;1.70;1.60;;;;;;;3.99;64.54;95792.41;5070216;28;20063;-73
2021/03/25 01:23:02;;;;;;;3.15;1.58;;;;;;;4.02;64.61;95792.72;5068362;28;20077;-74
2021/03/25 01:25:28;;;;;;;1.90;1.80;;;;;;;4.05;64.67;95802.78;5071670;28;20218;-73
2021/03/25 01:27:56;;;;;;;2.17;1.40;;;;;;;4.07;64.29;95792.78;5069372;28;20036;-73
2021/03/25 01:30:22;;;;;;;1.60;1.38;;;;;;;3.98;64.78;95785.56;5069594;28;20477;-73
2021/03/25 01:32:48;;;;;;;2.30;1.38;;;;;;;3.98;64.78;95791.63;5069166;28;20162;-73
2021/03/25 01:35:14;;;;;;;1.98;1.73;;;;;;;4.03;64.85;95807.47;5067419;28;20115;-72
2021/03/25 01:37:41;;;;;;;2.20;1.60;;;;;;;4.03;64.72;95794.31;5069295;28;20028;-73
2021/03/25 01:40:21;;;;;;;1.60;1.45;;;;;;;4.09;64.74;95789.91;5069852;28;20355;-72
2021/03/25 01:42:47;;;;;;;3.78;1.85;;;;;;;4.17;64.17;95778.94;5069179;28;20032;-74
2021/03/25 01:45:30;;;;;;;2.05;1.50;;;;;;;4.24;63.95;95781.38;5069452;28;20037;-74
2021/03/25 01:48:00;;;;;;;1.65;1.55;;;;;;;4.27;64.01;95781.69;5069353;28;20029;-73
2021/03/25 01:50:26;;;;;;;2.70;1.65;;;;;;;4.11;63.58;95762.31;5069425;28;20398;-73
2021/03/25 01:53:16;;;;;;;3.13;2.28;;;;;;;4.26;63.64;95787.22;5067869;28;20032;-75
2021/03/25 01:55:55;;;;;;;2.55;1.42;;;;;;;4.13;63.68;95768.09;5068126;28;20066;-74
2021/03/25 01:58:42;;;;;;;2.17;1.60;;;;;;;4.13;63.50;95783.09;5069933;28;20035;-73
2021/03/25 02:01:13;;;;;;;2.30;1.70;;;;;;;4.11;63.95;95775.47;5069946;28;20040;-74
2021/03/25 02:03:51;;;;;;;1.67;1.13;;;;;;;4.16;64.02;95783.41;5069466;28;20044;-73
2021/03/25 02:06:31;;;;;;;1.85;1.25;;;;;;;4.08;64.32;95781.22;5069626;28;20040;-73
2021/03/25 02:09:07;;;;;;;1.60;1.50;;;;;;;4.11;63.66;95778.09;5069234;28;20127;-74
2021/03/25 02:11:59;;;;;;;2.03;1.40;;;;;;;4.16;64.31;95780.00;5069194;28;20044;-73
2021/03/25 02:14:48;;;;;;;3.47;1.52;;;;;;;4.16;64.01;95777.34;5068915;28;20041;-73
2021/03/25 02:17:41;;;;;;;1.90;1.52;;;;;;;4.13;64.12;95775.22;5068956;28;20033;-73
2021/03/25 02:20:19;;;;;;;1.70;1.60;;;;;;;4.11;64.10;95772.03;5069463;28;20670;-74
2021/03/25 02:23:21;;;;;;;3.35;1.58;;;;;;;4.09;64.25;95769.63;5067544;28;20094;-72
2021/03/25 02:25:50;;;;;;;1.88;1.52;;;;;;;4.09;63.86;95766.22;5068114;28;20044;-73
2021/03/25 02:28:49;;;;;;;2.15;1.75;;;;;;;4.08;64.04;95759.34;5070795;28;20013;-73
2021/03/25 02:31:22;;;;;;;3.35;1.77;;;;;;;3.89;63.79;95740.50;5069493;28;20045;-74
2021/03/25 02:33:53;;;;;;;2.08;1.52;;;;;;;3.98;64.01;95761.88;5068787;28;20521;-73
2021/03/25 02:36:29;;;;;;;3.20;1.95;;;;;;;3.96;64.35;95766.59;5068879;28;20068;-73
2021/03/25 02:39:01;;;;;;;3.67;1.67;;;;;;;3.89;64.64;95751.00;5068866;28;20044;-73
2021/03/25 02:41:36;;;;;;;2.10;1.63;;;;;;;3.95;64.17;95757.13;5069280;28;20126;-74
2021/03/25 02:44:10;;;;;;;2.20;1.27;;;;;;;3.88;64.14;95755.47;5069392;28;20037;-73
2021/03/25 02:46:50;;;;;;;1.75;1.60;;;;;;;3.96;64.07;95767.41;5073644;28;20098;-74
2021/03/25 02:49:19;;;;;;;2.70;1.67;;;;;;;3.94;63.93;95771.31;5073949;28;20123;-73
2021/03/25 02:51:51;;;;;;;2.13;1.88;;;;;;;3.91;64.05;95772.59;5072794;28;20028;-73
2021/03/25 02:54:17;;;;;;;2.30;1.90;;;;;;;3.86;64.23;95757.56;5073192;28;20048;-74
2021/03/25 02:56:53;;;;;;;2.63;1.67;;;;;;;3.87;64.38;95766.25;5072939;28;20028;-75
2021/03/25 02:59:29;;;;;;;1.98;1.65;;;;;;;3.86;64.21;95770.72;5072982;28;20489;-73
2021/03/25 03:02:03;;;;;;;4.07;1.60;;;;;;;3.84;64.41;95772.00;5072481;28;20032;-74
2021/03/25 03:04:32;;;;;;;2.58;1.25;;;;;;;3.78;64.06;95759.81;5074795;28;20036;-73
2021/03/25 03:07:03;;;;;;;1.60;1.35;;;;;;;3.75;64.53;95758.47;5072613;28;20083;-73
2021/03/25 03:09:35;;;;;;;2.63;1.58;;;;;;;3.72;64.48;95755.53;5072894;28;20043;-73
2021/03/25 03:12:02;;;;;;;1.70;1.45;;;;;;;3.79;64.57;95764.06;5072424;28;20036;-73
2021/03/25 03:14:30;;;;;;;1.90;1.70;;;;;;;3.79;64.66;95754.31;5072248;28;20040;-73
2021/03/25 03:17:04;;;;;;;2.58;1.58;;;;;;;3.74;64.37;95751.63;5071068;28;20148;-74
2021/03/25 03:20:12;;;;;;;3.38;1.88;;;;;;;3.79;64.53;95764.84;5072323;28;20070;-75
2021/03/25 03:22:38;;;;;;;1.70;1.38;;;;;;;3.69;64.70;95746.31;5061978;28;20403;-70
2021/03/25 03:25:13;;;;;;;3.75;1.67;;;;;;;3.80;64.37;95771.69;5074134;28;20033;-74
2021/03/25 03:27:44;;;;;;;2.75;1.80;;;;;;;3.79;64.70;95766.69;5071961;28;20033;-73
2021/03/25 03:30:16;;;;;;;1.30;1.20;;;;;;;3.64;64.73;95741.78;5072260;28;20055;-74
2021/03/25 03:32:54;;;;;;;1.20;1.10;;;;;;;3.72;64.61;95752.91;5071942;28;20098;-73
2021/03/25 03:35:42;;;;;;;2.03;1.33;;;;;;;3.79;64.49;95756.16;5072105;28;20029;-73
2021/03/25 03:38:14;;;;;;;1.90;1.50;;;;;;;3.80;64.42;95758.53;5071736;28;20040;-74
2021/03/25 03:40:43;;;;;;;2.38;1.60;;;;;;;3.76;64.67;95748.75;5072016;28;20020;-73
2021/03/25 03:43:13;;;;;;;2.85;1.30;;;;;;;3.81;64.38;95760.13;5073639;28;20029;-73
2021/03/25 03:45:43;;;;;;;2.33;1.38;;;;;;;3.72;64.41;95745.00;5072147;28;20048;-74
2021/03/25 03:48:18;;;;;;;6.97;1.67;;;;;;;3.77;64.42;95753.75;5071809;28;20056;-73
2021/03/25 03:50:48;;;;;;;2.58;1.50;;;;;;;3.81;64.40;95751.44;5071884;28;20028;-74
2021/03/25 03:53:14;;;;;;;2.67;1.30;;;;;;;3.75;64.34;95749.78;5071647;28;20620;-74
2021/03/25 03:55:40;;;;;;;1.60;1.50;;;;;;;3.64;64.26;95739.16;5072156;28;20638;-73
2021/03/25 03:58:27;;;;;;;3.70;1.50;;;;;;;3.74;63.92;95751.63;5072498;28;20028;-73
2021/03/25 04:00:55;;;;;;;2.58;1.23;;;;;;;3.80;64.33;95761.16;5071677;28;20043;-74
2021/03/25 04:03:30;;;;;;;2.22;1.27;;;;;;;3.70;64.30;95736.56;5071301;28;20543;-72
2021/03/25 04:05:59;;;;;;;2.25;1.23;;;;;;;3.76;64.19;95756.63;5071661;28;20673;-73
2021/03/25 04:08:40;;;;;;;1.50;1.20;;;;;;;3.82;64.04;95766.97;5069900;28;20044;-73
2021/03/25 04:11:36;;;;;;;1.88;1.40;;;;;;;3.74;64.14;95753.47;5070404;28;20658;-74
2021/03/25 04:14:06;;;;;;;1.42;1.30;;;;;;;3.69;64.00;95758.66;5071361;28;20048;-74
2021/03/25 04:16:35;;;;;;;1.60;1.40;;;;;;;3.82;63.63;95764.34;5073549;28;20086;-74
2021/03/25 04:19:07;;;;;;;3.70;1.45;;;;;;;3.81;63.73;95759.34;5069825;28;20498;-74
2021/03/25 04:21:41;;;;;;;1.85;1.27;;;;;;;3.76;63.45;95760.06;5071052;28;20045;-72
2021/03/25 04:24:13;;;;;;;2.20;1.25;;;;;;;3.67;63.73;95743.09;5071073;28;20036;-74
2021/03/25 04:26:51;;;;;;;2.90;1.58;;;;;;;3.82;63.54;95763.53;5071484;28;20402;-74
2021/03/25 04:29:49;;;;;;;2.13;1.45;;;;;;;3.75;63.87;95741.91;5071475;28;20434;-74
2021/03/25 04:32:15;;;;;;;1.73;1.13;;;;;;;3.73;63.65;95743.97;5069913;28;20371;-74
2021/03/25 04:34:40;;;;;;;1.52;1.42;;;;;;;3.72;63.15;95750.28;5070890;28;20024;-74
2021/03/25 04:37:07;;;;;;;3.35;1.40;;;;;;;3.76;63.44;95754.00;5072932;28;20045;-73
2021/03/25 04:39:35;;;;;;;1.83;1.48;;;;;;;3.74;63.23;95753.47;5071257;28;20098;-73
2021/03/25 04:42:01;;;;;;;3.10;1.65;;;;;;;3.79;63.21;95761.41;5070552;28;20406;-74
2021/03/25 04:44:38;;;;;;;2.50;1.45;;;;;;;3.74;63.16;95754.25;5070971;28;20705;-73
2021/03/25 04:47:19;;;;;;;2.13;1.63;;;;;;;3.70;63.60;95752.38;5070768;28;20498;-75
2021/03/25 04:50:05;;;;;;;2.85;1.50;;;;;;;3.63;63.39;95745.44;5069842;28;20021;-74
2021/03/25 04:52:34;;;;;;;1.92;1.40;;;;;;;3.68;63.33;95770.22;5072640;28;20071;-74
2021/03/25 04:55:22;;;;;;;4.03;1.33;;;;;;;3.68;63.49;95760.47;5071011;28;20032;-74
2021/03/25 04:57:54;;;;;;;2.05;1.20;;;;;;;3.71;63.77;95764.47;5069179;28;20060;-74
2021/03/25 05:00:29;;;;;;;1.40;1.30;;;;;;;3.68;63.34;95757.06;5070292;28;20033;-74
2021/03/25 05:02:55;;;;;;;2.65;1.45;;;;;;;3.74;63.74;95764.00;5069877;28;20040;-73
2021/03/25 05:05:29;;;;;;;2.42;1.20;;;;;;;3.82;63.22;95764.34;5068831;28;20036;-74
2021/03/25 05:08:17;;;;;;;5.28;1.40;;;;;;;3.85;63.21;95755.19;5069684;28;20410;-74
2021/03/25 05:10:47;;;;;;;4.85;1.55;;;;;;;3.88;63.25;95749.41;5068443;28;20036;-74
2021/03/25 05:13:36;;;;;;;2.70;1.42;;;;;;;3.94;62.59;95755.50;5071800;28;20036;-74
2021/03/25 05:16:17;;;;;;;1.50;1.40;;;;;;;3.97;62.69;95757.66;5070479;28;20056;-73
2021/03/25 05:18:56;;;;;;;2.97;1.50;;;;;;;4.04;62.78;95764.31;5069824;28;20498;-73
2021/03/25 05:21:57;;;;;;;5.50;1.23;;;;;;;4.12;62.09;95771.00;5069729;28;20040;-74
2021/03/25 05:24:34;;;;;;;1.77;1.50;;;;;;;4.18;62.17;95765.53;5069798;28;20125;-74
2021/03/25 05:27:28;;;;;;;1.85;1.25;;;;;;;4.17;61.71;95766.56;5068485;28;20036;-75
2021/03/25 05:29:56;;;;;;;4.30;1.42;;;;;;;4.33;61.77;95761.47;5069683;28;20260;-73
2021/03/25 05:32:25;;;;;;;1.50;1.30;;;;;;;4.36;61.30;95756.50;5068131;28;20037;-73
2021/03/25 05:34:53;;;;;;;2.38;1.20;;;;;;;4.46;61.03;95755.81;5069852;28;20062;-74
2021/03/25 05:37:20;;;;;;;1.33;0.90;;;;;;;4.50;61.10;95754.22;5088017;28;20044;-77
2021/03/25 05:39:45;;;;;;;3.65;1.45;;;;;;;4.68;60.87;95764.41;5073129;28;20090;-78
2021/03/25 05:42:19;;;;;;;3.50;1.38;;;;;;;4.78;60.32;95765.53;5073372;28;20041;-74
2021/03/25 05:45:03;;;;;;;2.78;1.30;;;;;;;4.85;60.05;95774.03;5072495;28;20044;-71
2021/03/25 05:48:01;;;;;;;1.70;1.33;;;;;;;4.83;59.95;95755.03;5068531;28;20163;-72
2021/03/25 05:50:53;;;;;;;1.65;1.27;;;;;;;5.02;59.50;95768.63;5071423;28;20040;-68
2021/03/25 05:53:27;;;;;;;2.67;1.73;;;;;;;5.06;59.24;95769.69;5071884;28;20036;-71
2021/03/25 05:56:00;;;;;;;5.75;1.40;;;;;;;5.20;59.39;95770.84;5074673;28;20028;-71
2021/03/25 05:58:41;;;;;;;2.33;1.45;;;;;;;5.32;59.01;95771.44;5079530;22;20076;-65
2021/03/25 06:01:37;;;;;;;5.90;1.38;;;;;;;5.43;58.49;95770.47;5004979;28;20049;-63
2021/03/25 06:04:09;;;;;;;2.50;1.60;;;;;;;5.27;58.28;95731.84;4990201;28;20042;-67
2021/03/25 06:06:37;;;;;;;;;;;;;;;5.64;57.52;95774.03;4990228;28;20496;-63
2021/03/25 06:09:12;;;;;;;2.80;1.52;;;;;;;5.65;57.64;95765.03;4971926;28;19929;-64
2021/03/25 06:11:38;;;;;;;3.70;1.52;;;;;;;5.87;57.32;95775.44;4987881;28;20038;-71
2021/03/25 06:15:08;;;;;;;7.85;1.60;;;;;;;6.00;56.47;95782.13;4972090;28;20045;-65
2021/03/25 06:17:44;;;;;;;2.17;1.50;;;;;;;5.95;56.83;95755.69;4925776;29;20035;-67
2021/03/25 06:20:50;;;;;;;7.57;1.52;;;;;;;6.26;56.36;95783.00;4931977;28;20039;-66
2021/03/25 06:23:24;;;;;;;5.95;1.42;;;;;;;6.37;55.91;95776.66;4967955;28;20041;-65
2021/03/25 06:26:11;;;;;;;3.28;1.63;;;;;;;6.49;55.18;95779.84;4969265;28;20061;-67
2021/03/25 06:28:44;;;;;;;10.32;2.13;;;;;;;6.55;54.84;95772.72;4972820;28;20027;-66
2021/03/25 06:31:28;;;;;;;12.93;1.75;;;;;;;6.59;54.25;95760.56;4990743;28;20046;-65
2021/03/25 06:33:56;;;;;;;5.03;1.30;;;;;;;6.81;53.25;95793.91;4990182;28;20500;-65
2021/03/25 06:36:43;;;;;;;5.00;1.02;;;;;;;6.97;53.81;95791.03;4989772;28;20094;-62
2021/03/25 06:39:40;;;;;;;1.70;0.88;;;;;;;6.90;52.99;95757.94;4989671;28;20069;-62
2021/03/25 06:42:47;;;;;;;8.30;1.60;;;;;;;7.19;53.09;95766.94;4989153;28;20068;-61
2021/03/25 06:45:27;;;;;;;1.55;0.88;;;;;;;6.65;52.60;95685.50;4989247;28;20116;-67
2021/03/25 06:48:17;;;;;;;2.88;0.93;;;;;;;7.57;52.06;95791.19;4989816;28;20043;-68
2021/03/25 06:50:50;;;;;;;3.72;0.98;;;;;;;7.72;51.86;95791.16;4989429;28;20038;-65
2021/03/25 06:53:30;;;;;;;9.35;1.08;;;;;;;7.82;50.87;95791.13;4972234;28;20070;-66
2021/03/25 06:56:00;;;;;;;3.97;1.80;;;;;;;7.76;50.47;95768.38;4987746;28;20022;-66
2021/03/25 06:58:31;;;;;;;4.05;1.05;;;;;;;8.11;50.24;95803.75;4995395;28;20101;-68
2021/03/25 07:01:27;;;;;;;2.22;0.90;;;;;;;8.09;49.53;95784.69;4972506;28;20077;-59
2021/03/25 07:03:56;;;;;;;3.13;1.23;;;;;;;6.96;49.62;95572.56;4947624;28;20058;-59
2021/03/25 07:06:26;;;;;;;5.72;1.58;;;;;;;7.20;49.54;95579.88;4984371;28;20046;-60
2021/03/25 07:08:55;;;;;;;5.13;1.30;;;;;;;8.81;48.16;95808.97;4989271;28;20372;-62
2021/03/25 07:11:25;;;;;;;1.05;0.80;;;;;;;8.99;47.64;95808.31;4989883;28;20055;-62
2021/03/25 07:14:01;;;;;;;3.00;1.42;;;;;;;9.15;47.28;95808.97;4989717;28;20026;-64
2021/03/25 07:16:29;;;;;;;3.83;1.20;;;;;;;9.12;46.44;95788.31;4991892;28;20033;-62
2021/03/25 07:19:06;;;;;;;3.72;1.00;;;;;;;9.18;45.97;95786.41;4971699;28;20093;-61
2021/03/25 07:21:32;;;;;;;6.13;1.40;;;;;;;9.46;45.49;95812.16;4989255;28;20093;-61
2021/03/25 07:24:01;;;;;;;2.65;0.95;;;;;;;9.58;45.79;95806.47;4989659;28;20625;-60
2021/03/25 07:26:45;;;;;;;1.67;1.10;;;;;;;9.63;44.66;95803.78;4989609;28;20035;-61
2021/03/25 07:29:10;;;;;;;1.58;1.20;;;;;;;9.78;44.65;95813.47;4989575;28;20046;-63
2021/03/25 07:31:43;;;;;;;2.17;1.00;;;;;;;9.89;44.99;95820.25;4991817;28;20037;-62
2021/03/25 07:34:09;;;;;;;2.53;1.42;;;;;;;9.82;43.92;95791.34;4993750;28;20047;-62
2021/03/25 07:36:47;;;;;;;3.33;1.27;;;;;;;9.96;43.71;95788.78;4993296;28;20072;-62
2021/03/25 07:39:13;;;;;;;5.05;1.30;;;;;;;10.21;43.50;95805.53;4975558;28;20062;-61
2021/03/25 07:41:44;;;;;;;2.97;1.15;;;;;;;10.32;43.16;95801.69;4992591;28;20063;-61
2021/03/25 07:44:42;;;;;;;5.15;1.58;;;;;;;10.36;42.57;95810.69;4992863;28;20041;-63
2021/03/25 07:47:34;;;;;;;1.92;1.30;;;;;;;10.36;42.27;95798.16;4955852;28;20055;-62
2021/03/25 07:50:26;;;;;;;4.07;1.48;;;;;;;10.82;42.65;95808.19;4975998;28;20077;-63
2021/03/25 07:52:53;;;;;;;;;;;;;;;10.96;42.01;95815.44;4993251;28;20495;-60
2021/03/25 07:55:18;;;;;;;9.73;2.25;;;;;;;11.06;41.04;95815.28;4977235;28;19921;-64
2021/03/25 07:57:45;;;;;;;6.32;2.08;;;;;;;10.80;39.75;95820.19;4992693;28;20038;-62
2021/03/25 08:00:32;;;;;;;5.63;2.35;;;;;;;10.87;39.22;95805.44;4975549;28;20038;-63
2021/03/25 08:03:20;;;;;;;4.15;2.30;;;;;;;11.30;39.99;95807.97;4992290;28;20038;-61
2021/03/25 08:05:50;;;;;;;3.72;2.30;;;;;;;11.42;38.78;95812.84;4992507;28;20046;-61
2021/03/25 08:08:29;;;;;;;7.47;2.83;;;;;;;11.05;39.36;95779.09;4992368;28;20436;-61
2021/03/25 08:11:10;;;;;;;4.57;2.65;;;;;;;11.38;39.41;95815.28;4992681;28;20029;-60
2021/03/25 08:13:36;;;;;;;6.07;2.63;;;;;;;11.60;38.36;95808.53;4993853;28;20129;-63
2021/03/25 08:16:10;;;;;;;7.03;3.30;;;;;;;11.37;38.93;95819.03;4992929;28;20046;-62
2021/03/25 08:18:56;;;;;;;6.88;3.92;;;;;;;11.37;37.86;95826.25;4974802;28;20504;-63
2021/03/25 08:21:31;;;;;;;10.88;3.78;;;;;;;11.60;38.76;95819.19;4991649;28;20042;-62
2021/03/25 08:24:05;;;;;;;11.88;4.40;;;;;;;11.33;39.77;95822.59;4975106;28;20124;-63
2021/03/25 08:27:02;;;;;;;6.30;4.03;;;;;;;11.14;39.86;95819.94;4992614;28;20046;-63
2021/03/25 08:29:45;;;;;;;5.30;3.38;;;;;;;11.06;40.67;95820.63;4992111;28;20042;-62
2021/03/25 08:32:43;;;;;;;6.10;3.78;;;;;;;11.04;40.16;95828.09;4991856;28;20479;-63
2021/03/25 08:35:14;;;;;;;6.05;4.22;;;;;;;11.37;39.96;95826.25;4953190;28;20460;-62
2021/03/25 08:38:21;;;;;;;12.38;4.47;;;;;;;11.72;39.36;95822.19;4991997;28;20026;-62
2021/03/25 08:40:54;;;;;;;8.73;4.20;;;;;;;11.82;39.59;95827.34;4991593;28;20061;-62
2021/03/25 08:43:43;;;;;;;7.07;3.85;;;;;;;12.34;39.10;95822.63;4993427;28;20054;-63
2021/03/25 08:46:21;;;;;;;6.80;4.32;;;;;;;12.39;37.99;95811.84;4973059;28;20130;-63
2021/03/25 08:48:54;;;;;;;7.78;5.10;;;;;;;11.83;38.32;95748.97;4989719;28;20134;-62
2021/03/25 08:51:25;;;;;;;8.13;4.85;;;;;;;12.32;38.62;95814.13;4991310;28;20496;-61
2021/03/25 08:54:04;;;;;;;11.40;4.70;;;;;;;12.49;38.19;95803.63;4974227;28;20070;-63
2021/03/25 08:56:46;;;;;;;6.40;4.32;;;;;;;12.46;38.95;95822.13;4991796;28;20045;-66
2021/03/25 08:59:15;;;;;;;;;;;;;;;12.73;38.87;95821.25;4974573;28;20056;-65
2021/03/25 09:01:52;;;;;;;6.10;4.55;;;;;;;13.12;37.68;95809.19;4973626;28;20005;-66
2021/03/25 09:04:19;;;;;;;8.63;5.45;;;;;;;12.95;37.30;95805.28;4993695;28;20081;-65
2021/03/25 09:06:48;;;;;;;7.35;4.88;;;;;;;12.37;38.38;95790.00;4991530;28;20035;-67
2021/03/25 09:09:47;;;;;;;8.82;4.55;;;;;;;12.26;38.94;95817.97;4991427;28;20113;-67
2021/03/25 09:12:27;;;;;;;9.57;5.72;;;;;;;12.95;38.22;95817.88;4973662;28;20400;-66
2021/03/25 09:14:55;;;;;;;8.68;5.38;;;;;;;12.96;37.25;95755.34;4991440;28;20129;-67
2021/03/25 09:17:23;;;;;;;6.25;4.80;;;;;;;13.35;36.93;95789.41;4991213;28;20396;-66
2021/03/25 09:19:52;;;;;;;13.32;4.97;;;;;;;13.31;36.79;95743.03;4990803;28;20022;-66
2021/03/25 09:22:34;;;;;;;10.23;4.85;;;;;;;13.88;37.09;95801.97;4992675;28;20117;-66
2021/03/25 09:25:27;;;;;;;8.38;5.53;;;;;;;13.64;36.70;95796.97;4991066;28;20039;-66
2021/03/25 09:27:57;;;;;;;7.85;5.15;;;;;;;14.15;36.29;95795.59;4955373;28;20047;-66
2021/03/25 09:30:39;;;;;;;8.23;5.53;;;;;;;14.31;36.22;95791.38;4985535;28;20050;-66
2021/03/25 09:33:42;;;;;;;9.02;6.05;;;;;;;14.37;36.08;95783.22;4990810;28;20100;-66
2021/03/25 09:36:17;;;;;;;12.98;6.78;;;;;;;14.45;35.20;95785.91;4991070;28;20054;-66
2021/03/25 09:38:51;;;;;;;12.63;7.10;;;;;;;14.64;35.78;95791.03;4990898;28;20035;-66
2021/03/25 09:41:17;;;;;;;11.20;7.28;;;;;;;14.60;35.28;95783.94;4973218;28;20045;-65
2021/03/25 09:43:44;;;;;;;7.65;6.85;;;;;;;14.17;34.62;95761.28;4990972;28;20034;-65
2021/03/25 09:46:28;;;;;;;9.98;8.00;;;;;;;13.90;34.82;95789.06;4992812;28;20369;-66
2021/03/25 09:48:56;;;;;;;14.18;8.52;;;;;;;13.49;35.13;95789.34;4973004;28;20380;-65
2021/03/25 09:51:28;;;;;;;13.45;8.77;;;;;;;13.56;34.88;95783.53;4990045;28;20050;-67
2021/03/25 09:53:57;;;;;;;11.88;8.68;;;;;;;13.42;34.95;95791.66;4990390;28;20046;-66
2021/03/25 09:56:28;;;;;;;17.77;8.80;;;;;;;13.39;35.16;95795.72;4983606;28;20093;-66
2021/03/25 09:58:56;;;;;;;13.68;8.73;;;;;;;13.97;34.22;95784.06;4973308;28;20035;-65
2021/03/25 10:01:53;;;;;;;11.48;8.68;;;;;;;13.91;33.17;95789.84;4974892;28;20105;-66
2021/03/25 10:04:24;;;;;;;12.88;9.05;;;;;;;14.36;33.41;95779.75;4990992;28;20057;-65
2021/03/25 10:06:58;;;;;;;12.02;8.82;;;;;;;13.91;32.99;95787.16;4990356;28;20065;-65
2021/03/25 10:09:52;;;;;;;10.75;7.72;;;;;;;13.94;33.57;95778.53;4990531;28;20404;-65
2021/03/25 10:12:42;;;;;;;9.27;7.95;;;;;;;13.97;33.51;95775.22;4972696;28;20030;-65
2021/03/25 10:15:42;;;;;;;9.32;7.90;;;;;;;14.62;32.26;95779.81;4978106;28;20045;-66
2021/03/25 10:18:16;;;;;;;9.38;7.55;;;;;;;14.89;32.20;95775.25;4983077;28;20056;-68
2021/03/25 10:21:12;;;;;;;14.65;8.07;;;;;;;14.43;32.60;95776.59;4972193;28;20500;-67
2021/03/25 10:23:55;;;;;;;11.00;7.63;;;;;;;15.03;32.41;95774.00;4990408;28;20481;-67
2021/03/25 10:26:34;;;;;;;9.98;7.18;;;;;;;15.15;31.80;95768.03;4990541;28;20219;-69
2021/03/25 10:29:05;;;;;;;10.88;6.82;;;;;;;15.14;31.75;95766.41;4990076;28;20133;-67
2021/03/25 10:31:49;;;;;;;9.27;7.13;;;;;;;15.27;31.69;95770.03;4974535;28;20037;-67
2021/03/25 10:34:24;;;;;;;9.40;6.95;;;;;;;15.19;30.93;95770.81;4989446;28;20034;-67
2021/03/25 10:37:02;;;;;;;10.40;7.55;;;;;;;14.69;32.81;95765.97;4954895;28;20102;-68
2021/03/25 10:39:30;;;;;;;9.77;7.35;;;;;;;15.40;32.22;95755.66;4985845;28;20448;-67
2021/03/25 10:41:56;;;;;;;8.55;7.47;;;;;;;15.62;31.25;95751.19;4989955;28;20034;-67
2021/03/25 10:44:33;;;;;;;8.50;7.50;;;;;;;15.27;30.92;95753.97;4972584;28;20042;-66
2021/03/25 10:47:04;;;;;;;11.50;7.78;;;;;;;14.39;31.81;95724.81;4989796;28;20390;-66
2021/03/25 10:49:43;;;;;;;10.23;7.78;;;;;;;14.35;32.39;95734.56;4974395;28;20515;-67
2021/03/25 10:52:18;;;;;;;9.77;8.63;;;;;;;14.36;32.67;95746.84;4990313;28;20081;-67
2021/03/25 10:54:46;;;;;;;10.68;7.15;;;;;;;14.74;31.98;95742.50;4972191;28;20497;-67
2021/03/25 10:57:25;;;;;;;9.35;7.03;;;;;;;14.22;32.53;95742.41;4972441;28;20097;-67
2021/03/25 11:00:06;;;;;;;11.55;8.23;;;;;;;14.38;33.10;95741.97;4989973;28;20030;-66
2021/03/25 11:02:41;;;;;;;11.63;7.15;;;;;;;15.17;31.77;95732.84;4989764;28;20121;-61
2021/03/25 11:05:21;;;;;;;15.60;7.45;;;;;;;15.19;31.74;95728.75;4990073;28;20058;-63
2021/03/25 11:07:52;;;;;;;16.00;8.63;;;;;;;14.62;33.08;95707.53;4993602;28;20022;-63
2021/03/25 11:10:17;;;;;;;8.68;7.32;;;;;;;14.57;32.23;95737.13;4995747;28;20028;-62
2021/03/25 11:12:44;;;;;;;13.90;8.02;;;;;;;14.82;32.55;95725.63;4975788;28;20515;-65
2021/03/25 11:15:20;;;;;;;22.77;8.93;;;;;;;14.45;32.87;95731.59;4993365;28;20038;-63
2021/03/25 11:17:47;;;;;;;8.45;6.15;;;;;;;14.67;31.31;95717.31;4975934;28;20416;-66
2021/03/25 11:20:19;;;;;;;11.57;6.68;;;;;;;14.77;31.27;95733.03;4993016;28;20451;-66
2021/03/25 11:22:45;;;;;;;6.70;6.00;;;;;;;14.87;31.08;95655.06;4975664;28;20469;-64
2021/03/25 11:25:21;;;;;;;7.97;6.63;;;;;;;14.32;32.03;95693.16;4995531;28;20117;-66
2021/03/25 11:27:46;;;;;;;7.35;6.40;;;;;;;14.96;32.03;95708.63;4993496;28;20061;-65
2021/03/25 11:30:38;;;;;;;8.63;6.68;;;;;;;15.41;29.89;95721.63;4993313;28;20125;-65
2021/03/25 11:33:20;;;;;;;;;;;;;;;15.86;30.10;95720.03;4993643;28;20053;-59
2021/03/25 11:35:45;;;;;;;7.32;6.07;;;;;;;15.83;30.62;95642.09;4993095;28;19918;-66
2021/03/25 11:38:15;;;;;;;10.25;7.07;;;;;;;15.92;30.79;95644.72;4993182;28;20045;-67
2021/03/25 11:40:43;;;;;;;7.72;6.28;;;;;;;16.51;30.69;95669.56;4975365;28;20473;-63
2021/03/25 11:43:44;;;;;;;11.15;7.45;;;;;;;16.35;30.10;95714.22;4994894;28;20076;-62
2021/03/25 11:46:10;;;;;;;7.95;7.05;;;;;;;15.43;31.18;95714.81;4990575;28;20133;-65
2021/03/25 11:48:37;;;;;;;7.95;5.60;;;;;;;15.98;30.01;95708.63;4992783;28;20046;-61
2021/03/25 11:51:15;;;;;;;5.82;5.13;;;;;;;15.88;28.77;95706.31;4992355;28;20408;-62
2021/03/25 11:53:41;;;;;;;8.43;6.32;;;;;;;16.21;29.87;95702.94;4984071;28;20043;-63
2021/03/25 11:56:19;;;;;;;6.13;5.00;;;;;;;15.72;28.49;95624.81;4977644;28;20042;-62
2021/03/25 11:58:58;;;;;;;5.22;4.70;;;;;;;16.47;27.62;95700.88;4992493;28;20054;-64
2021/03/25 12:01:26;;;;;;;5.78;4.43;;;;;;;16.87;27.12;95693.16;4994430;28;20053;-64
2021/03/25 12:03:54;;;;;;;6.60;4.90;;;;;;;17.01;27.85;95673.28;4992534;28;20125;-63
2021/03/25 12:06:34;;;;;;;7.72;6.25;;;;;;;15.71;28.95;95661.56;4992485;28;20488;-63
2021/03/25 12:09:17;;;;;;;7.60;6.80;;;;;;;15.79;30.01;95692.16;4992263;28;20441;-64
2021/03/25 12:11:47;;;;;;;13.77;6.32;;;;;;;16.66;29.86;95686.19;4992504;28;20054;-63
2021/03/25 12:14:14;;;;;;;10.63;6.57;;;;;;;17.09;29.64;95681.22;4975110;28;20046;-63
2021/03/25 12:16:40;;;;;;;7.60;6.07;;;;;;;17.30;28.56;95666.94;4975159;28;20022;-64
2021/03/25 12:19:07;;;;;;;8.10;6.03;;;;;;;17.13;27.47;95676.75;4993332;28;20084;-64